Time;durP1;ratioP1;P1;durP2;ratioP2;P2;SDS_P1;SDS_P2;PMS_P1;PMS_P2;Temp;Humidity;BMP_temperature;BMP_pressure;BME280_temperature;BME280_humidity;BME280_pressure;Samples;Min_cycle;Max_cycle;Signal;HPM_P1;HPM_P2
2024/01/15 00:02:09;;;;;;;9.30;6.10;;;18.50;31.20;;;;;;5052264;28;20282;-61
2024/01/15 00:04:38;;;;;;;9.02;6.20;;;18.50;31.30;;;;;;5051984;28;20787;-62
2024/01/15 00:07:06;;;;;;;8.77;5.80;;;18.50;31.30;;;;;;5051687;28;20238;-62
2024/01/15 00:09:33;;;;;;;8.82;5.90;;;18.50;31.30;;;;;;5052390;28;20215;-62
2024/01/15 00:12:01;;;;;;;7.43;5.60;;;18.40;31.30;;;;;;5051900;28;20310;-61
2024/01/15 00:14:28;;;;;;;7.88;5.82;;;18.50;31.30;;;;;;5052028;28;20226;-62
2024/01/15 00:16:55;;;;;;;8.52;6.32;;;18.40;32.00;;;;;;5051929;28;20191;-62
2024/01/15 00:19:23;;;;;;;11.38;5.93;;;18.40;31.30;;;;;;5052042;28;20220;-62
2024/01/15 00:21:50;;;;;;;8.10;5.93;;;18.40;31.30;;;;;;5051802;28;20195;-61
2024/01/15 00:24:19;;;;;;;8.27;5.75;;;18.40;31.30;;;;;;5052051;28;20306;-62
2024/01/15 00:26:46;;;;;;;8.25;5.95;;;18.40;31.30;;;;;;5052124;28;20198;-62
2024/01/15 00:29:13;;;;;;;8.68;5.43;;;18.40;31.40;;;;;;5051455;28;20607;-62
2024/01/15 00:31:39;;;;;;;8.90;5.72;;;18.40;31.40;;;;;;5051920;28;20230;-62
2024/01/15 00:34:06;;;;;;;6.82;5.03;;;18.40;31.40;;;;;;5051699;28;20705;-62
2024/01/15 00:36:33;;;;;;;9.68;5.78;;;18.40;31.40;;;;;;5051352;28;20206;-62
2024/01/15 00:39:00;;;;;;;7.50;5.22;;;18.40;31.40;;;;;;5051936;28;20220;-60
2024/01/15 00:41:28;;;;;;;5.72;4.80;;;18.40;32.10;;;;;;5051923;28;20218;-62
2024/01/15 00:43:55;;;;;;;6.22;5.03;;;18.40;31.60;;;;;;5051673;28;20346;-62
2024/01/15 00:46:22;;;;;;;7.03;4.78;;;18.40;31.60;;;;;;5051569;28;20278;-62
2024/01/15 00:48:49;;;;;;;6.25;4.70;;;18.40;31.60;;;;;;5051716;28;20222;-62
2024/01/15 00:51:16;;;;;;;7.10;5.03;;;18.40;31.60;;;;;;5051222;28;20688;-62
2024/01/15 00:53:43;;;;;;;8.68;5.22;;;18.40;31.60;;;;;;5051514;28;20235;-62
2024/01/15 00:56:09;;;;;;;5.68;4.30;;;18.40;31.60;;;;;;5051770;28;20203;-62
2024/01/15 00:58:38;;;;;;;5.85;4.57;;;18.40;31.70;;;;;;5051410;28;20221;-62
2024/01/15 01:01:05;;;;;;;5.30;4.03;;;18.40;31.70;;;;;;5051432;28;20195;-62
2024/01/15 01:03:31;;;;;;;6.25;4.28;;;18.40;31.80;;;;;;5051674;28;20306;-61
2024/01/15 01:05:58;;;;;;;4.97;4.07;;;18.40;31.80;;;;;;5051125;28;20653;-62
2024/01/15 01:08:25;;;;;;;5.60;4.00;;;18.40;31.80;;;;;;5051213;28;20772;-61
2024/01/15 01:10:52;;;;;;;7.20;4.13;;;18.40;31.80;;;;;;5051907;28;20286;-62
2024/01/15 01:13:19;;;;;;;4.97;3.92;;;18.40;31.80;;;;;;5051347;28;20316;-62
2024/01/15 01:15:47;;;;;;;5.93;3.88;;;18.40;31.80;;;;;;5055209;28;20266;-62
2024/01/15 01:18:14;;;;;;;4.68;3.53;;;18.40;31.80;;;;;;5055063;28;20315;-62
2024/01/15 01:20:41;;;;;;;5.57;4.07;;;18.30;31.70;;;;;;5054953;28;20270;-59
2024/01/15 01:23:07;;;;;;;5.72;3.85;;;18.30;31.90;;;;;;5055019;28;20200;-62
2024/01/15 01:25:34;;;;;;;5.90;3.35;;;18.30;31.90;;;;;;5054766;28;20725;-62
2024/01/15 01:28:01;;;;;;;4.97;3.65;;;18.30;31.90;;;;;;5054754;28;20191;-61
2024/01/15 01:30:28;;;;;;;5.05;3.33;;;18.30;32.00;;;;;;5054895;28;20219;-62
2024/01/15 01:32:56;;;;;;;4.13;3.30;;;18.30;32.00;;;;;;5054829;28;20220;-62
2024/01/15 01:35:23;;;;;;;5.28;3.30;;;18.30;32.00;;;;;;5054786;28;20192;-56
2024/01/15 01:37:50;;;;;;;4.70;3.40;;;18.30;32.00;;;;;;5054681;28;20194;-62
2024/01/15 01:40:17;;;;;;;5.50;3.20;;;18.30;31.90;;;;;;5054705;28;20770;-62
2024/01/15 01:42:44;;;;;;;4.15;2.65;;;18.30;32.00;;;;;;5054770;28;20294;-62
2024/01/15 01:45:11;;;;;;;4.00;2.83;;;18.30;32.10;;;;;;5053069;28;20318;-62
2024/01/15 01:47:39;;;;;;;3.70;2.78;;;18.30;32.10;;;;;;5053969;28;20196;-62
2024/01/15 01:50:08;;;;;;;6.70;3.20;;;18.30;32.80;;;;;;5054527;28;20327;-62
2024/01/15 01:52:36;;;;;;;3.30;2.80;;;18.30;32.10;;;;;;5053790;28;20219;-61
2024/01/15 01:55:05;;;;;;;3.58;2.80;;;18.30;32.10;;;;;;5054705;28;20219;-62
2024/01/15 01:57:34;;;;;;;3.22;2.60;;;18.30;32.10;;;;;;5054495;28;20195;-60
2024/01/15 02:00:03;;;;;;;3.25;2.53;;;18.30;32.20;;;;;;5054188;28;20215;-62
2024/01/15 02:02:30;;;;;;;5.07;2.90;;;18.30;32.20;;;;;;5054117;28;20223;-61
2024/01/15 02:04:57;;;;;;;4.30;2.20;;;18.30;32.20;;;;;;5054255;28;20222;-61
2024/01/15 02:07:26;;;;;;;4.68;2.70;;;18.30;32.30;;;;;;5053750;28;20231;-60
2024/01/15 02:09:53;;;;;;;4.03;2.67;;;18.30;32.30;;;;;;5054094;28;20223;-62
2024/01/15 02:12:20;;;;;;;4.68;2.60;;;18.30;32.40;;;;;;5054135;28;20215;-62
2024/01/15 02:14:47;;;;;;;3.22;2.30;;;18.20;32.30;;;;;;5053999;28;20302;-62
2024/01/15 02:17:13;;;;;;;5.35;2.35;;;18.30;32.40;;;;;;5054328;28;20630;-62
2024/01/15 02:19:40;;;;;;;3.92;2.42;;;18.20;32.40;;;;;;5053631;28;20713;-62
2024/01/15 02:22:07;;;;;;;3.45;2.17;;;18.20;32.30;;;;;;5053702;28;20198;-61
2024/01/15 02:24:35;;;;;;;3.25;2.13;;;18.20;32.40;;;;;;5053804;28;20223;-62
2024/01/15 02:27:02;;;;;;;3.05;2.00;;;18.20;32.40;;;;;;5052880;28;20220;-62
2024/01/15 02:29:29;;;;;;;3.25;2.00;;;18.20;32.40;;;;;;5053331;28;20733;-62
2024/01/15 02:31:56;;;;;;;2.58;1.88;;;18.20;32.50;;;;;;5053764;28;20227;-62
2024/01/15 02:34:23;;;;;;;2.95;2.10;;;18.20;32.50;;;;;;5053275;28;20238;-62
2024/01/15 02:36:50;;;;;;;2.70;1.90;;;18.20;32.40;;;;;;5053386;28;20275;-62
2024/01/15 02:39:17;;;;;;;3.65;1.85;;;18.20;33.10;;;;;;5053331;28;20697;-62
2024/01/15 02:41:45;;;;;;;5.32;2.20;;;18.20;32.50;;;;;;5053595;28;20294;-60
2024/01/15 02:44:12;;;;;;;2.88;2.03;;;18.20;32.50;;;;;;5053147;28;20221;-62
2024/01/15 02:46:38;;;;;;;3.28;1.90;;;18.20;32.50;;;;;;5053234;28;20650;-62
2024/01/15 02:49:05;;;;;;;3.17;1.95;;;18.20;32.50;;;;;;5053343;28;20223;-61
2024/01/15 02:51:32;;;;;;;2.20;1.80;;;18.20;32.60;;;;;;5053096;28;20183;-62
2024/01/15 02:53:59;;;;;;;3.20;1.90;;;18.20;33.20;;;;;;5053399;28;20254;-62
2024/01/15 02:56:26;;;;;;;2.55;1.90;;;18.20;32.50;;;;;;5053044;28;20191;-62
2024/01/15 02:58:54;;;;;;;3.30;1.77;;;18.20;32.50;;;;;;5053015;28;20246;-62
2024/01/15 03:01:21;;;;;;;3.80;1.73;;;18.20;32.50;;;;;;5053496;28;20200;-62
2024/01/15 03:03:48;;;;;;;3.90;1.90;;;18.20;32.50;;;;;;5052889;28;20701;-62
2024/01/15 03:06:15;;;;;;;2.50;1.67;;;18.20;33.10;;;;;;5052909;28;20295;-62
2024/01/15 03:08:42;;;;;;;4.25;1.83;;;18.20;32.40;;;;;;5052823;28;20736;-62
2024/01/15 03:11:09;;;;;;;3.20;1.75;;;18.20;32.40;;;;;;5053322;28;20286;-63
2024/01/15 03:13:37;;;;;;;2.78;1.70;;;18.20;32.40;;;;;;5052571;28;20235;-59
2024/01/15 03:16:06;;;;;;;3.97;1.77;;;18.10;32.30;;;;;;5053035;28;20202;-62
2024/01/15 03:18:33;;;;;;;2.88;1.40;;;18.10;32.30;;;;;;5052899;28;20239;-62
2024/01/15 03:21:01;;;;;;;2.33;1.67;;;18.10;32.40;;;;;;5052600;28;20282;-62
2024/01/15 03:23:28;;;;;;;4.03;1.85;;;18.10;32.30;;;;;;5052553;28;20250;-61
2024/01/15 03:25:54;;;;;;;1.52;1.38;;;18.10;32.30;;;;;;5052846;28;20210;-62
2024/01/15 03:28:21;;;;;;;2.40;1.45;;;18.10;32.20;;;;;;5052439;28;20195;-62
2024/01/15 03:30:48;;;;;;;4.63;1.50;;;18.10;32.20;;;;;;5052777;28;20287;-62
2024/01/15 03:33:16;;;;;;;2.67;1.60;;;18.10;32.20;;;;;;5052542;28;20215;-62
2024/01/15 03:35:43;;;;;;;1.98;1.60;;;18.10;32.10;;;;;;5052421;28;20194;-62
2024/01/15 03:38:10;;;;;;;2.28;1.23;;;18.10;32.10;;;;;;5051939;28;20730;-62
2024/01/15 03:40:37;;;;;;;2.90;1.20;;;18.10;32.00;;;;;;5052242;28;20570;-62
2024/01/15 03:43:04;;;;;;;4.88;1.70;;;18.10;32.00;;;;;;5051985;28;20234;-62
2024/01/15 03:45:31;;;;;;;2.95;1.40;;;18.10;32.00;;;;;;5052796;28;20225;-62
2024/01/15 03:47:57;;;;;;;1.48;1.17;;;18.10;32.00;;;;;;5052420;28;20187;-62
2024/01/15 03:50:26;;;;;;;4.60;1.20;;;18.10;31.90;;;;;;5052117;28;20247;-62
2024/01/15 03:52:52;;;;;;;1.95;1.30;;;18.00;31.80;;;;;;5052062;28;20245;-62
2024/01/15 03:55:19;;;;;;;2.00;1.10;;;18.00;31.80;;;;;;5052343;28;20221;-61
2024/01/15 03:57:46;;;;;;;1.67;1.33;;;18.00;31.80;;;;;;5052013;28;20198;-62
2024/01/15 04:00:17;;;;;;;1.88;1.15;;;18.00;31.80;;;;;;5052015;28;20592;-62
2024/01/15 04:02:44;;;;;;;1.63;1.10;;;18.00;31.80;;;;;;5052321;28;20219;-62
2024/01/15 04:05:10;;;;;;;2.80;1.35;;;18.00;31.80;;;;;;5051861;28;20226;-62
2024/01/15 04:07:39;;;;;;;2.03;1.20;;;18.00;31.80;;;;;;5051922;28;20362;-60
2024/01/15 04:10:06;;;;;;;2.42;1.20;;;18.00;31.70;;;;;;5051998;28;20723;-61
2024/01/15 04:12:33;;;;;;;2.28;1.08;;;18.00;31.70;;;;;;5051797;28;20210;-61
2024/01/15 04:15:00;;;;;;;3.80;1.35;;;18.00;31.70;;;;;;5052027;28;20306;-62
2024/01/15 04:17:28;;;;;;;2.30;1.00;;;18.00;31.60;;;;;;5051212;28;20192;-61
2024/01/15 04:19:55;;;;;;;2.90;1.38;;;18.00;31.50;;;;;;5051044;28;20245;-62
2024/01/15 04:22:22;;;;;;;1.48;1.10;;;18.00;31.50;;;;;;5052138;28;20212;-61
2024/01/15 04:24:50;;;;;;;1.42;1.10;;;18.00;31.50;;;;;;5052082;28;20219;-62
2024/01/15 04:27:17;;;;;;;2.70;1.40;;;18.00;31.50;;;;;;5051955;28;20191;-60
2024/01/15 04:29:44;;;;;;;2.25;1.00;;;18.00;31.50;;;;;;5052096;28;20306;-62
2024/01/15 04:32:11;;;;;;;1.73;1.13;;;17.90;31.30;;;;;;5051909;28;20184;-62
2024/01/15 04:34:38;;;;;;;1.27;1.00;;;17.90;31.30;;;;;;5051789;28;20239;-62
2024/01/15 04:37:05;;;;;;;2.13;1.00;;;17.90;31.30;;;;;;5051999;28;20275;-61
2024/01/15 04:39:32;;;;;;;1.58;1.15;;;17.90;31.30;;;;;;5051674;28;20302;-61
2024/01/15 04:42:00;;;;;;;1.55;1.10;;;17.90;31.30;;;;;;5051616;28;20275;-62
2024/01/15 04:44:27;;;;;;;2.05;1.20;;;17.90;31.30;;;;;;5051730;28;20262;-62
2024/01/15 04:46:54;;;;;;;2.13;1.08;;;17.90;31.30;;;;;;5052155;28;20282;-62
2024/01/15 04:49:21;;;;;;;1.55;0.95;;;17.90;31.30;;;;;;5053347;28;20220;-62
2024/01/15 04:51:47;;;;;;;1.95;0.98;;;17.90;31.20;;;;;;5055434;28;20561;-62
2024/01/15 04:54:17;;;;;;;1.92;1.02;;;17.90;31.20;;;;;;5055672;28;20231;-62
2024/01/15 04:56:44;;;;;;;1.95;0.98;;;17.90;31.20;;;;;;5055249;28;20209;-62
2024/01/15 04:59:13;;;;;;;1.60;1.20;;;17.90;31.10;;;;;;5055601;28;20219;-62
2024/01/15 05:01:39;;;;;;;1.25;0.88;;;17.80;31.10;;;;;;5055527;28;20573;-62
2024/01/15 05:04:06;;;;;;;2.28;0.95;;;17.80;31.00;;;;;;5054850;28;20219;-61
2024/01/15 05:06:33;;;;;;;2.17;1.10;;;17.80;30.90;;;;;;5055363;28;20199;-62
2024/01/15 05:09:00;;;;;;;1.58;1.00;;;17.80;31.60;;;;;;5055358;28;20302;-62
2024/01/15 05:11:27;;;;;;;1.52;1.00;;;17.80;30.90;;;;;;5055057;28;20438;-62
2024/01/15 05:13:54;;;;;;;1.80;0.93;;;17.80;30.90;;;;;;5054970;28;20717;-61
2024/01/15 05:16:22;;;;;;;1.38;1.13;;;17.80;30.90;;;;;;5055280;28;20202;-62
2024/01/15 05:18:49;;;;;;;1.60;1.20;;;17.80;30.80;;;;;;5054547;28;20587;-62
2024/01/15 05:21:16;;;;;;;1.77;0.95;;;17.80;30.80;;;;;;5054944;28;20283;-61
2024/01/15 05:23:43;;;;;;;1.80;1.08;;;17.80;30.80;;;;;;5055241;28;20231;-61
2024/01/15 05:26:10;;;;;;;1.60;0.90;;;17.80;30.80;;;;;;5054746;28;20272;-62
2024/01/15 05:28:36;;;;;;;1.98;0.93;;;17.80;30.80;;;;;;5055056;28;20192;-62
2024/01/15 05:31:04;;;;;;;0.90;0.80;;;17.80;30.70;;;;;;5054931;28;20184;-62
2024/01/15 05:33:32;;;;;;;2.53;1.55;;;17.80;30.70;;;;;;5054180;28;20223;-62
2024/01/15 05:35:59;;;;;;;1.05;0.80;;;17.80;30.70;;;;;;5054600;28;20725;-62
2024/01/15 05:38:26;;;;;;;1.67;1.00;;;17.80;30.70;;;;;;5054808;28;20192;-62
2024/01/15 05:40:53;;;;;;;3.70;1.20;;;17.80;30.60;;;;;;5054495;28;20198;-62
2024/01/15 05:43:20;;;;;;;1.83;0.90;;;17.80;30.60;;;;;;5054664;28;20294;-60
2024/01/15 05:45:47;;;;;;;1.13;0.98;;;17.80;30.60;;;;;;5054690;28;20274;-62
2024/01/15 05:48:14;;;;;;;1.88;1.08;;;17.80;30.50;;;;;;5054278;28;20218;-61
2024/01/15 05:50:43;;;;;;;2.38;1.00;;;17.80;30.60;;;;;;5054791;28;20302;-62
2024/01/15 05:53:09;;;;;;;1.63;0.80;;;17.80;30.60;;;;;;5054538;28;20621;-61
2024/01/15 05:55:38;;;;;;;2.00;1.10;;;17.70;30.50;;;;;;5054169;28;20306;-62
2024/01/15 05:58:05;;;;;;;2.50;1.10;;;17.70;30.50;;;;;;5054370;28;20184;-62
2024/01/15 06:00:32;;;;;;;1.20;0.90;;;17.70;30.40;;;;;;5053895;28;20258;-62
2024/01/15 06:02:59;;;;;;;1.98;0.98;;;17.70;30.40;;;;;;5053642;28;20192;-60
2024/01/15 06:05:26;;;;;;;1.40;0.98;;;17.70;30.30;;;;;;5054485;28;20329;-62
2024/01/15 06:07:54;;;;;;;1.05;0.93;;;17.70;30.40;;;;;;5054000;28;20258;-62
2024/01/15 06:10:21;;;;;;;4.47;0.90;;;17.70;30.40;;;;;;5054016;28;20222;-61
2024/01/15 06:12:48;;;;;;;2.13;1.02;;;17.70;30.30;;;;;;5053903;28;20748;-60
2024/01/15 06:15:15;;;;;;;1.08;0.70;;;17.70;30.30;;;;;;5054039;28;20326;-62
2024/01/15 06:17:42;;;;;;;1.58;0.80;;;17.70;30.30;;;;;;5053916;28;20184;-62
2024/01/15 06:20:10;;;;;;;2.42;1.48;;;17.70;30.30;;;;;;5053676;28;20222;-62
2024/01/15 06:22:39;;;;;;;2.90;1.10;;;17.70;30.40;;;;;;5054063;28;20188;-62
2024/01/15 06:25:08;;;;;;;1.90;1.10;;;17.70;30.30;;;;;;5053711;28;20219;-62
2024/01/15 06:27:34;;;;;;;1.38;1.00;;;17.70;30.30;;;;;;5053901;28;20246;-62
2024/01/15 06:30:01;;;;;;;1.13;0.98;;;17.70;30.30;;;;;;5053641;28;20225;-61
2024/01/15 06:32:28;;;;;;;1.60;0.55;;;17.70;30.30;;;;;;5053478;28;20275;-62
2024/01/15 06:34:55;;;;;;;1.65;0.90;;;17.70;30.30;;;;;;5053475;28;20235;-61
2024/01/15 06:37:22;;;;;;;1.17;0.90;;;17.70;30.20;;;;;;5053333;28;20194;-61
2024/01/15 06:39:49;;;;;;;2.22;1.10;;;17.70;30.20;;;;;;5053328;28;20220;-59
2024/01/15 06:42:18;;;;;;;1.25;0.80;;;17.70;30.20;;;;;;5053753;28;20198;-62
2024/01/15 06:44:44;;;;;;;1.50;1.02;;;17.60;30.10;;;;;;5053742;28;20216;-62
2024/01/15 06:47:11;;;;;;;1.52;0.93;;;17.70;30.20;;;;;;5053176;28;20276;-61
2024/01/15 06:49:38;;;;;;;3.25;1.00;;;17.70;30.20;;;;;;5053318;28;20314;-62
2024/01/15 06:52:06;;;;;;;1.08;0.80;;;17.70;30.10;;;;;;5053380;28;20609;-61
2024/01/15 06:54:33;;;;;;;1.17;0.88;;;17.60;30.00;;;;;;5052709;28;20486;-63
2024/01/15 06:56:59;;;;;;;2.15;1.65;;;17.60;30.00;;;;;;5053375;28;20184;-61
2024/01/15 06:59:28;;;;;;;1.60;0.90;;;17.60;30.00;;;;;;5053064;28;20701;-62
2024/01/15 07:01:55;;;;;;;0.77;0.70;;;17.60;30.00;;;;;;5052573;28;20191;-62
2024/01/15 07:04:22;;;;;;;1.35;1.00;;;17.60;29.90;;;;;;5053563;28;20281;-62
2024/01/15 07:06:48;;;;;;;1.00;0.77;;;17.60;29.90;;;;;;5052918;28;20334;-62
2024/01/15 07:09:16;;;;;;;1.50;1.00;;;17.60;29.80;;;;;;5052687;28;20225;-62
2024/01/15 07:11:46;;;;;;;1.00;0.80;;;17.60;29.80;;;;;;5052845;28;20607;-62
2024/01/15 07:14:13;;;;;;;1.60;0.80;;;17.60;29.80;;;;;;5052736;28;20243;-62
2024/01/15 07:16:41;;;;;;;1.92;0.80;;;17.60;29.80;;;;;;5052946;28;20187;-61
2024/01/15 07:19:08;;;;;;;0.70;0.70;;;17.60;29.80;;;;;;5052944;28;20298;-62
2024/01/15 07:21:35;;;;;;;1.05;0.95;;;17.60;29.90;;;;;;5052957;28;20198;-62
2024/01/15 07:24:01;;;;;;;2.15;0.90;;;17.60;29.80;;;;;;5052409;28;20654;-60
2024/01/15 07:26:28;;;;;;;0.85;0.75;;;17.60;29.80;;;;;;5052594;28;20288;-62
2024/01/15 07:28:55;;;;;;;1.60;0.93;;;17.50;29.70;;;;;;5052763;28;20219;-60
2024/01/15 07:31:22;;;;;;;4.65;1.27;;;17.50;29.70;;;;;;5052358;28;20184;-62
2024/01/15 07:33:50;;;;;;;1.08;0.90;;;17.50;29.70;;;;;;5052592;28;20211;-60
2024/01/15 07:36:17;;;;;;;1.00;0.90;;;17.50;29.70;;;;;;5052647;28;20280;-62
2024/01/15 07:38:44;;;;;;;1.10;0.90;;;17.50;29.60;;;;;;5052233;28;20194;-61
2024/01/15 07:41:11;;;;;;;0.98;0.80;;;17.50;29.60;;;;;;5052651;28;20276;-61
2024/01/15 07:43:39;;;;;;;2.63;0.90;;;17.50;29.60;;;;;;5052525;28;20192;-62
2024/01/15 07:46:06;;;;;;;1.77;1.13;;;17.60;29.70;;;;;;5052186;28;20278;-62
2024/01/15 07:48:34;;;;;;;1.15;0.60;;;17.60;29.70;;;;;;5052389;28;20188;-62
2024/01/15 07:51:02;;;;;;;1.95;0.90;;;17.60;29.70;;;;;;5052448;28;20207;-61
2024/01/15 07:53:29;;;;;;;1.55;0.90;;;17.50;29.60;;;;;;5051828;28;20742;-60
2024/01/15 07:55:56;;;;;;;2.97;1.02;;;17.50;29.60;;;;;;5052326;28;20219;-62
2024/01/15 07:58:23;;;;;;;1.77;1.00;;;17.50;29.60;;;;;;5052300;28;20270;-60
2024/01/15 08:00:50;;;;;;;1.30;1.00;;;17.50;29.60;;;;;;5052092;28;20219;-61
2024/01/15 08:03:16;;;;;;;1.60;1.00;;;17.50;30.00;;;;;;5052335;28;20597;-62
2024/01/15 08:05:43;;;;;;;3.05;0.90;;;17.50;29.60;;;;;;5052079;28;20215;-62
2024/01/15 08:08:12;;;;;;;1.67;0.80;;;17.50;29.60;;;;;;5051533;28;20236;-62
2024/01/15 08:10:39;;;;;;;1.00;0.70;;;17.50;29.60;;;;;;5052504;28;20223;-60
2024/01/15 08:13:07;;;;;;;2.25;0.95;;;17.50;29.60;;;;;;5051934;28;20199;-62
2024/01/15 08:15:34;;;;;;;1.23;0.88;;;17.50;29.60;;;;;;5051667;28;20612;-62
2024/01/15 08:18:01;;;;;;;1.27;1.00;;;17.50;29.60;;;;;;5052116;28;20290;-62
2024/01/15 08:20:28;;;;;;;1.73;0.90;;;17.50;29.60;;;;;;5052232;28;20215;-62
2024/01/15 08:22:55;;;;;;;1.02;0.82;;;17.50;29.60;;;;;;5051476;28;20187;-61
2024/01/15 08:25:23;;;;;;;1.67;0.93;;;17.50;29.60;;;;;;5055632;28;20717;-62
2024/01/15 08:27:50;;;;;;;1.95;0.98;;;17.50;29.60;;;;;;5056145;28;20279;-62
2024/01/15 08:30:18;;;;;;;1.17;1.08;;;17.40;29.50;;;;;;5055802;28;20222;-62
2024/01/15 08:32:45;;;;;;;1.98;1.00;;;17.40;29.50;;;;;;5056119;28;20184;-62
2024/01/15 08:35:12;;;;;;;1.73;0.90;;;17.40;29.50;;;;;;5055783;28;20231;-62
2024/01/15 08:37:39;;;;;;;2.47;0.90;;;17.40;29.50;;;;;;5055826;28;20226;-61
2024/01/15 08:40:07;;;;;;;1.27;0.90;;;17.40;29.50;;;;;;5056124;28;20307;-62
2024/01/15 08:42:35;;;;;;;1.67;0.80;;;17.40;29.50;;;;;;5055956;28;20188;-62
2024/01/15 08:45:02;;;;;;;1.90;0.85;;;17.40;29.50;;;;;;5055552;28;20215;-61
2024/01/15 08:47:29;;;;;;;1.73;0.80;;;17.40;30.00;;;;;;5055829;28;20242;-62
2024/01/15 08:49:56;;;;;;;1.42;0.70;;;17.40;29.40;;;;;;5055586;28;20222;-62
2024/01/15 08:52:23;;;;;;;1.70;1.00;;;17.40;29.40;;;;;;5055383;28;20188;-59
2024/01/15 08:54:49;;;;;;;1.95;1.08;;;17.40;29.40;;;;;;5055324;28;20246;-61
2024/01/15 08:57:17;;;;;;;2.25;0.90;;;17.40;29.30;;;;;;5055650;28;20184;-62
2024/01/15 08:59:45;;;;;;;1.55;0.90;;;17.40;29.40;;;;;;5055276;28;20215;-62
2024/01/15 09:02:12;;;;;;;2.08;0.80;;;17.40;29.40;;;;;;5055510;28;20195;-62
2024/01/15 09:04:39;;;;;;;1.52;1.00;;;17.30;29.30;;;;;;5055272;28;20717;-58
2024/01/15 09:07:06;;;;;;;2.45;1.05;;;17.40;29.30;;;;;;5054876;28;20237;-61
2024/01/15 09:09:34;;;;;;;1.20;0.80;;;17.40;29.30;;;;;;5055692;28;20306;-61
2024/01/15 09:12:00;;;;;;;2.20;0.70;;;17.30;29.20;;;;;;5055179;28;20230;-62
2024/01/15 09:14:28;;;;;;;1.10;0.90;;;17.40;29.20;;;;;;5055151;28;20216;-62
2024/01/15 09:16:57;;;;;;;1.60;0.93;;;17.30;29.10;;;;;;5055440;28;20192;-62
2024/01/15 09:19:24;;;;;;;1.48;0.90;;;17.40;29.20;;;;;;5055144;28;20225;-62
2024/01/15 09:21:51;;;;;;;2.72;0.98;;;17.40;29.20;;;;;;5054829;28;20184;-58
2024/01/15 09:24:17;;;;;;;1.13;0.80;;;17.30;29.10;;;;;;5055220;28;20646;-61
2024/01/15 09:26:44;;;;;;;2.58;0.73;;;17.30;29.10;;;;;;5054868;28;20192;-61
2024/01/15 09:29:11;;;;;;;2.13;0.77;;;17.30;29.00;;;;;;5054702;28;20226;-62
2024/01/15 09:31:38;;;;;;;2.50;0.80;;;17.30;29.10;;;;;;5054920;28;20184;-61
2024/01/15 09:34:06;;;;;;;2.17;0.95;;;17.30;29.10;;;;;;5054275;28;20757;-62
2024/01/15 09:36:33;;;;;;;2.35;1.10;;;17.30;29.00;;;;;;5054009;28;20595;-62
2024/01/15 09:39:00;;;;;;;2.38;0.98;;;17.30;29.00;;;;;;5054606;28;20310;-61
2024/01/15 09:41:27;;;;;;;2.03;0.90;;;17.30;28.90;;;;;;5054879;28;20214;-62
2024/01/15 09:43:54;;;;;;;2.92;0.80;;;17.30;28.90;;;;;;5054092;28;20188;-62
2024/01/15 09:46:21;;;;;;;1.65;1.00;;;17.30;28.90;;;;;;5054737;28;20203;-62
2024/01/15 09:48:49;;;;;;;2.10;1.00;;;17.30;28.90;;;;;;5054313;28;20672;-62
2024/01/15 09:51:17;;;;;;;1.90;0.90;;;17.30;28.90;;;;;;5054173;28;20282;-63
2024/01/15 09:53:45;;;;;;;2.35;1.02;;;17.30;28.90;;;;;;5054507;28;20188;-62
2024/01/15 09:56:12;;;;;;;1.67;1.00;;;17.30;28.90;;;;;;5054151;28;20217;-62
2024/01/15 09:58:41;;;;;;;2.35;0.77;;;17.30;28.90;;;;;;5054047;28;20188;-62
2024/01/15 10:01:09;;;;;;;2.90;0.82;;;17.30;28.90;;;;;;5054432;28;20222;-62
2024/01/15 10:03:36;;;;;;;1.88;1.00;;;17.30;28.90;;;;;;5054073;28;20192;-62
2024/01/15 10:06:03;;;;;;;3.20;0.90;;;17.20;28.80;;;;;;5053754;28;20216;-62
2024/01/15 10:08:32;;;;;;;1.50;0.93;;;17.20;28.80;;;;;;5053768;28;20274;-60
2024/01/15 10:10:59;;;;;;;2.15;0.90;;;17.20;28.80;;;;;;5054475;28;20575;-62
2024/01/15 10:13:26;;;;;;;3.35;1.00;;;17.20;28.80;;;;;;5053583;28;20183;-62
2024/01/15 10:15:54;;;;;;;7.32;1.05;;;17.30;28.80;;;;;;5054100;28;20584;-61
2024/01/15 10:18:21;;;;;;;1.95;0.88;;;17.20;28.80;;;;;;5053741;28;20653;-61
2024/01/15 10:20:48;;;;;;;5.65;1.42;;;17.20;28.80;;;;;;5053838;28;20219;-62
2024/01/15 10:23:15;;;;;;;5.30;0.90;;;17.20;28.90;;;;;;5053731;28;20212;-62
2024/01/15 10:25:44;;;;;;;5.72;1.20;;;17.20;28.90;;;;;;5054153;28;20307;-61
2024/01/15 10:28:11;;;;;;;6.20;1.20;;;17.20;28.80;;;;;;5053224;28;20188;-60
2024/01/15 10:30:38;;;;;;;15.32;1.65;;;17.20;28.90;;;;;;5053893;28;20219;-62
2024/01/15 10:33:05;;;;;;;14.15;1.40;;;17.20;28.90;;;;;;5053863;28;20188;-62
2024/01/15 10:35:34;;;;;;;14.00;1.65;;;17.20;28.90;;;;;;5053388;28;20242;-62
2024/01/15 10:38:01;;;;;;;7.43;1.17;;;17.20;30.00;;;;;;5053673;28;20190;-62
2024/01/15 10:40:28;;;;;;;9.05;1.35;;;17.20;30.80;;;;;;5053388;28;20227;-63
2024/01/15 10:42:56;;;;;;;9.20;1.25;;;17.30;31.00;;;;;;5053254;28;20283;-64
2024/01/15 10:45:24;;;;;;;3.42;1.17;;;17.30;31.40;;;;;;5053418;28;20592;-63
2024/01/15 10:47:51;;;;;;;19.98;1.25;;;17.20;31.60;;;;;;5034827;28;20202;-63
2024/01/15 10:50:18;;;;;;;8.35;1.40;;;17.30;31.80;;;;;;5053218;28;20310;-63
2024/01/15 10:52:45;;;;;;;5.03;1.25;;;17.30;31.50;;;;;;5053535;28;20282;-64
2024/01/15 10:55:12;;;;;;;9.07;1.10;;;17.30;31.60;;;;;;5053293;28;20330;-63
2024/01/15 10:57:39;;;;;;;4.97;1.10;;;17.30;31.60;;;;;;5052818;28;20246;-63
2024/01/15 11:00:14;;;;;;;10.73;1.25;;;17.20;31.30;;;;;;5053057;28;20789;-62
2024/01/15 11:02:41;;;;;;;2.38;1.02;;;17.20;31.30;;;;;;5053347;28;20187;-64
2024/01/15 11:05:09;;;;;;;5.38;1.23;;;17.20;31.30;;;;;;5052733;28;20218;-62
2024/01/15 11:07:36;;;;;;;3.20;1.00;;;17.20;31.10;;;;;;5052912;28;20235;-64
2024/01/15 11:10:04;;;;;;;7.97;1.20;;;17.20;31.00;;;;;;5053258;28;20222;-60
2024/01/15 11:12:33;;;;;;;3.33;0.80;;;17.20;31.00;;;;;;5052745;28;20234;-63
2024/01/15 11:15:05;;;;;;;2.28;0.90;;;17.20;30.80;;;;;;5052772;28;20223;-62
2024/01/15 11:18:01;;;;;;;4.75;0.80;;;17.10;30.70;;;;;;5052999;28;20195;-63
2024/01/15 11:20:28;;;;;;;4.55;1.20;;;17.20;30.80;;;;;;5052358;28;20740;-64
2024/01/15 11:22:57;;;;;;;3.13;0.98;;;17.10;30.60;;;;;;5053041;28;20676;-63
2024/01/15 11:25:24;;;;;;;2.15;0.95;;;17.20;30.40;;;;;;5053106;28;20215;-63
2024/01/15 11:27:52;;;;;;;5.82;0.93;;;17.10;30.40;;;;;;5052216;28;20282;-62
2024/01/15 11:30:20;;;;;;;2.10;0.90;;;17.10;30.20;;;;;;5052920;28;20247;-64
2024/01/15 11:32:49;;;;;;;5.65;1.20;;;17.10;30.20;;;;;;5052750;28;20560;-64
2024/01/15 11:35:16;;;;;;;2.20;0.98;;;17.10;30.10;;;;;;5052388;28;20639;-64
2024/01/15 11:37:59;;;;;;;5.85;1.00;;;17.10;30.10;;;;;;5052345;28;20699;-64
2024/01/15 11:40:38;;;;;;;2.35;1.10;;;17.10;30.00;;;;;;5052404;28;20220;-64
2024/01/15 11:43:06;;;;;;;3.50;0.98;;;17.10;30.00;;;;;;5052273;28;20278;-64
2024/01/15 11:45:34;;;;;;;0.95;0.80;;;17.10;30.00;;;;;;5052569;28;20223;-64
2024/01/15 11:48:16;;;;;;;2.78;1.00;;;17.10;29.90;;;;;;5052166;28;20542;-64
2024/01/15 11:50:45;;;;;;;2.78;0.93;;;17.10;29.80;;;;;;5051945;28;20224;-64
2024/01/15 11:53:27;;;;;;;1.35;0.80;;;17.10;29.70;;;;;;5052515;28;20287;-64
2024/01/15 11:55:59;;;;;;;2.03;0.90;;;17.10;29.60;;;;;;5051954;28;20322;-64
2024/01/15 11:58:27;;;;;;;6.13;0.88;;;17.10;29.40;;;;;;5051513;28;20184;-64
2024/01/15 12:00:55;;;;;;;1.05;0.90;;;17.10;29.40;;;;;;5052431;28;20223;-64
2024/01/15 12:03:24;;;;;;;1.58;0.80;;;17.10;29.40;;;;;;5052378;28;20203;-64
2024/01/15 12:05:52;;;;;;;1.98;0.88;;;17.00;29.40;;;;;;5051751;28;20258;-64
2024/01/15 12:08:22;;;;;;;2.60;1.10;;;17.00;29.30;;;;;;5051835;28;20259;-63
2024/01/15 12:10:49;;;;;;;4.75;1.13;;;17.00;29.30;;;;;;5052176;28;20662;-64
2024/01/15 12:13:17;;;;;;;1.88;0.90;;;17.00;29.30;;;;;;5051541;28;20603;-64
2024/01/15 12:15:46;;;;;;;2.13;0.73;;;17.00;29.30;;;;;;5051991;28;20235;-63
2024/01/15 12:18:14;;;;;;;2.03;0.88;;;17.00;29.30;;;;;;5052163;28;20226;-63
2024/01/15 12:20:46;;;;;;;1.85;1.00;;;17.00;29.30;;;;;;5051502;28;20302;-63
2024/01/15 12:23:14;;;;;;;2.00;0.90;;;17.00;29.30;;;;;;5052196;28;20210;-64
2024/01/15 12:25:41;;;;;;;1.77;0.90;;;17.00;29.30;;;;;;5051962;28;20542;-64
2024/01/15 12:28:08;;;;;;;1.13;0.70;;;17.10;29.40;;;;;;5051474;28;20192;-64
2024/01/15 12:30:37;;;;;;;1.67;0.73;;;17.00;29.30;;;;;;5051740;28;20246;-63
2024/01/15 12:33:05;;;;;;;4.13;0.70;;;17.00;29.30;;;;;;5051907;28;20207;-64
2024/01/15 12:35:32;;;;;;;1.23;0.60;;;17.00;29.30;;;;;;5051619;28;20219;-64
2024/01/15 12:38:02;;;;;;;2.65;0.90;;;17.00;29.30;;;;;;5051511;28;20279;-64
2024/01/15 12:40:28;;;;;;;1.85;0.80;;;17.00;29.30;;;;;;5052174;28;20222;-64
2024/01/15 12:42:56;;;;;;;1.35;0.82;;;17.00;29.30;;;;;;5051594;28;20194;-63
2024/01/15 12:45:23;;;;;;;1.65;0.85;;;17.00;29.30;;;;;;5052070;28;20220;-63
2024/01/15 12:47:51;;;;;;;3.38;1.00;;;17.00;29.30;;;;;;5051866;28;20278;-64